Portada
METAR-TAF:

METAR-TAF

Aeroports :

Ilo, Perú

latitud: 17-41-45S, longitud: 071-20-35W, altitud: 22 m

Observació

L'informe es va fer fa 6 hores i 29 minuts, a les 23:00 UTC
Vent 7 kt del Sud/Sud-Oest
Temperatura 17°C
Humitat 77%
Pressió 1016 hPa
Visibilitat 10 km o més
Cel cobert a una alçada de 2500 ft

METAR: SPLO 032300Z 20007KT 9999 OVC025 17/13 Q1016 RMK PP000

Hora: 00:29 (05:29 UTC)

Pronòstic

L'informe es va fer fa 18 hores i 9 minuts, a les 11:20 UTC
Pronòstic vàlid del 03 a les 12 UTC al 04 a les 12 UTC
Vent 4 kt del Sud-Oest
Visibilitat 10 km o més
Cel ennuvolat a una alçada de 2500 ft
A partir de les 03 a les 1830 UTC
Vent 8 kt del Sud-Oest
Visibilitat 10 km o més
Cel ennuvolat a una alçada de 3000 ft
A partir de les 04 a les 0000 UTC
Vent 5 kt del Oest/Sud-Oest
Visibilitat 10 km o més
Cel cobert a una alçada de 2200 ft

TAF: SPLO 031120Z 0312/0412 22004KT 9999 BKN025 TX19/0319Z TN15/0410Z FM031830 22008KT 9999 BKN030 FM040000 24005KT 9999 OVC022

Observacions i pronòstics meteorològics de més de 4000 aeroports (METAR i TAF).

Les estacions disponibles són els punts grocs i vermells al mapa.

Posi el ratolí al punt desitjat per veure el nom de l'estació.

Feu clic per veure les observacions i els pronòstics meteorològics.

Per canviar el mapa: feu clic els botons verds amb una creu de color negre per apropar; al botó verd amb un guió per allunyar la imatge; o en les fletxes verdes per a mapes adjacents.


METAR-TAF: